Terminal Aerodrome Forecast
Issued by NWS

Home | Current Version | Previous Version | Text Only | Print | Product List | Glossary On
Versions: 1 2 3 4 5 6 7 8 9 10 11 12 13 14 15 16 17 18 19 20 21 22 23 24 25 26 27 28 29 30 31 32 33 34 35 36
000
FTUS46 KEKA 011850 CCD
TAFCEC
TAF COR
KCEC 011850Z 0118/0218 20006KT P6SM OVC010
     FM012100 18006KT P6SM BKN100
     FM020100 17010G17KT P6SM VCSH BKN008
     FM020800 VRB03KT 3SM BR OVC002=

USA.gov is the U.S. government's official web portal to all federal, state and local government web resources and services.